Nearby METAR Reports

 

KCMH - Columbus, Ohio, USA
Distance from station: SW 5mi, 8km
Updated: Sat, 24-Feb-2018 6:15pm EST
Light rain, Overcast
Light rain, Overcast
 Wind from ESE
Wind: ESE 7 mph , 11 km/h
Temperature: 50°F , 10°C
Wind Chill: 47°F , 8°C
Dew Point: 48°F , 9°C
Humidity: 94%
Barometer: 30.00 inHg , 1015.9 hPa
Summary: Light rain
Clouds: Overcast
Visibility: 7 miles , 11 km
Cloud details: Mostly cloudy 1500 ft
Mostly cloudy 3200 ft
Overcast 6000 ft
2018/02/24 23:15 KCMH 242315Z 11006KT 7SM -RA BKN015 BKN032 OVC060 10/09 A3000 RMK AO2 P0005 T01000089 $
KOSU - Columbus/St Univ, Ohio, USA
Distance from station: W 14mi, 23km
Updated: Sat, 24-Feb-2018 5:53pm EST
Light rain, Overcast
Light rain, Overcast
 Wind from ESE
Wind: ESE 8 mph , 13 km/h
Temperature: 50°F , 10°C
Wind Chill: 47°F , 8°C
Dew Point: 48°F , 9°C
Humidity: 94%
Barometer: 30.00 inHg , 1015.9 hPa
Summary: Light rain
Clouds: Overcast
Visibility: 8 miles , 13 km
Cloud details: Overcast 1400 ft
2018/02/24 22:53 KOSU 242253Z 12007KT 8SM -RA OVC014 10/09 A3000 RMK AO2 RAB2157E12B33 SLP160 P0001 T01000089
 
KLCK - Rickenbacker Ang, Ohio, USA
Distance from station: SSW 17mi, 27km
Updated: Sat, 24-Feb-2018 6:15pm EST
Light rain, Overcast
Light rain, Overcast
 Wind from ENE
Wind: ENE 5 mph , 7 km/h
Temperature: 48°F , 9°C
Wind Chill: 46°F , 8°C
Dew Point: 48°F , 9°C
Humidity: 100%
Barometer: 29.99 inHg , 1015.6 hPa
Summary: Light rain
Clouds: Overcast
Visibility: 7 miles , 11 km
Cloud details: Overcast 1300 ft
2018/02/24 23:15 KLCK 242315Z AUTO 07004KT 7SM -RA OVC013 09/09 A2999 RMK AO2 T00940093
KVTA - Newark, Ohio, USA
Distance from station: E 19mi, 30km
Updated: Sat, 24-Feb-2018 5:54pm EST
Overcast
Overcast
 Wind from ENE
Wind: ENE 6 mph , 9 km/h
Temperature: 52°F , 11°C
Dew Point: 46°F , 8°C
Humidity: 82%
Barometer: 30.01 inHg , 1016.3 hPa
Clouds: Overcast
Visibility: 10 miles , 16 km
Cloud details: Overcast 1300 ft
2018/02/24 22:54 KVTA 242254Z AUTO 07005KT 10SM OVC013 11/08 A3001 RMK AO2 SLP162 T01060078
 
KTZR - Columbus/Bolton, Ohio, USA
Distance from station: WSW 20mi, 31km
Updated: Sat, 24-Feb-2018 6:15pm EST
Light rain, Overcast
Light rain, Overcast
 Wind from E
Wind: E 8 mph , 13 km/h
Temperature: 48°F , 9°C
Wind Chill: 44°F , 7°C
Dew Point: 48°F , 9°C
Humidity: 100%
Barometer: 29.98 inHg , 1015.2 hPa
Summary: Light rain
Clouds: Overcast
Visibility: 7 miles , 11 km
Cloud details: Partly cloudy 1200 ft
Partly cloudy 6000 ft
Overcast 8500 ft
2018/02/24 23:15 KTZR 242315Z 10007KT 7SM -RA SCT012 SCT060 OVC085 09/09 A2998
KLHQ - Lancaster, Ohio, USA
Distance from station: SSE 22mi, 36km
Updated: Sat, 24-Feb-2018 5:53pm EST
Light rain, Overcast
Light rain, Overcast
 Wind from E
Wind: E 5 mph , 7 km/h
Temperature: 50°F , 10°C
Wind Chill: 48°F , 9°C
Dew Point: 48°F , 9°C
Humidity: 94%
Barometer: 30.01 inHg , 1016.3 hPa
Summary: Light rain
Clouds: Overcast
Visibility: 7 miles , 11 km
Cloud details: Overcast 1000 ft
2018/02/24 22:53 KLHQ 242253Z AUTO 08004KT 7SM -RA OVC010 10/09 A3001 RMK AO2 RAB25 SLP164 P0003 T01000089
 
KDLZ - Delaware, Ohio, USA
Distance from station: NW 23mi, 36km
Updated: Sat, 24-Feb-2018 6:15pm EST
Overcast
Overcast
 Wind from ESE
Wind: ESE 7 mph , 11 km/h
Temperature: 50°F , 10°C
Wind Chill: 47°F , 8°C
Dew Point: 46°F , 8°C
Humidity: 88%
Barometer: 29.99 inHg , 1015.6 hPa
Clouds: Overcast
Visibility: 10 miles , 16 km
Cloud details: Overcast 1500 ft
2018/02/24 23:15 KDLZ 242315Z AUTO 11006KT 10SM OVC015 10/08 A2999 RMK AO2
K4I3 - Mt Vernon/Knox, Ohio, USA
Distance from station: NE 25mi, 40km
Updated: Sat, 24-Feb-2018 6:15pm EST
Overcast
Overcast
 Wind from E
Wind: E 10 mph , 17 km/h
Temperature: 48°F , 9°C
Wind Chill: 44°F , 7°C
Dew Point: 46°F , 8°C
Humidity: 94%
Barometer: 30.02 inHg , 1016.6 hPa
Clouds: Overcast
Visibility: 10 miles , 16 km
Cloud details: Overcast 1400 ft
2018/02/24 23:15 K4I3 242315Z AUTO 09009KT 10SM OVC014 09/08 A3002 RMK AO2
 
KMRT - Marysville, Ohio, USA
Distance from station: WNW 30mi, 49km
Updated: Sat, 24-Feb-2018 6:15pm EST
Overcast
Overcast
 Wind from ESE
Wind: ESE 7 mph , 11 km/h
Temperature: 48°F , 9°C
Wind Chill: 45°F , 7°C
Dew Point: 46°F , 8°C
Humidity: 94%
Barometer: 29.96 inHg , 1014.6 hPa
Clouds: Overcast
Visibility: 2 miles , 3 km
Cloud details: Overcast 1300 ft
2018/02/24 23:15 KMRT 242315Z AUTO 11006KT 2SM OVC013 09/08 A2996 RMK AO2 P0001 T00930079
KMNN - Marion, Ohio, USA
Distance from station: NNW 41mi, 67km
Updated: Sat, 24-Feb-2018 5:53pm EST
Overcast
Overcast
 Wind from ESE
Wind: ESE 9 mph , 15 km/h
Temperature: 48°F , 9°C
Wind Chill: 44°F , 7°C
Dew Point: 45°F , 7°C
Humidity: 87%
Barometer: 30.00 inHg , 1015.9 hPa
Clouds: Overcast
Visibility: 10 miles , 16 km
Cloud details: Overcast 1200 ft
2018/02/24 22:53 KMNN 242253Z AUTO 11008KT 10SM OVC012 09/07 A3000 RMK AO2 SLP166 T00890067
 
KZZV - Zanesville, Ohio, USA
Distance from station: E 49mi, 79km
Updated: Sat, 24-Feb-2018 5:53pm EST
Overcast
Overcast
 Wind from ENE
Wind: ENE 5 mph , 7 km/h
Temperature: 52°F , 11°C
Dew Point: 46°F , 8°C
Humidity: 82%
Barometer: 30.01 inHg , 1016.3 hPa
Clouds: Overcast
Visibility: 10 miles , 16 km
Cloud details: Overcast 1300 ft
2018/02/24 22:53 KZZV 242253Z AUTO 07004KT 10SM OVC013 11/08 A3001 RMK AO2 SLP162 T01060078